Terminal Aerodrome Forecast
Issued by NWS Wilmington, OH

Current Version | Previous Version | Graphics & Text | Print | Product List | Glossary On
Versions: 1 2 3 4 5 6 7 8 9 10 11 12 13 14 15 16 17 18 19 20 21 22 23
000
FTUS41 KILN 201736
TAFILN
TAF
KILN 201736Z 2018/2118 22013KT P6SM OVC035
      TEMPO 2018/2022 BKN025
     FM210100 19004KT P6SM BKN020
     FM210500 17006KT P6SM BKN015
     FM210900 17005KT 5SM BR BKN007
     FM211400 20009KT P6SM BKN012=

USA.gov is the U.S. government's official web portal to all federal, state and local government web resources and services.